createdAt,value
2022-11-30T00:01:44.660Z,0
2022-11-30T00:06:44.652Z,0
2022-11-30T00:11:44.624Z,0
2022-11-30T00:16:44.642Z,0
2022-11-30T00:21:44.628Z,0
2022-11-30T00:26:44.604Z,0
2022-11-30T00:31:44.637Z,0
2022-11-30T00:36:44.649Z,0
2022-11-30T00:41:44.665Z,0
2022-11-30T00:46:44.607Z,0
2022-11-30T00:51:44.639Z,0
2022-11-30T00:56:44.638Z,0
2022-11-30T01:01:44.660Z,0
2022-11-30T01:06:44.584Z,0
2022-11-30T01:11:44.592Z,0
2022-11-30T01:16:44.622Z,0
2022-11-30T01:21:44.614Z,0
2022-11-30T01:26:44.614Z,0
2022-11-30T01:31:44.632Z,0
2022-11-30T01:36:44.614Z,0
2022-11-30T01:41:44.608Z,0
2022-11-30T01:46:44.593Z,0
2022-11-30T01:51:44.588Z,0
2022-11-30T01:56:44.592Z,0
2022-11-30T02:01:44.708Z,0
2022-11-30T02:06:44.591Z,0
2022-11-30T02:11:44.609Z,0
2022-11-30T02:16:44.565Z,0
2022-11-30T02:21:44.603Z,0
2022-11-30T02:26:44.601Z,0
2022-11-30T02:31:44.572Z,0
2022-11-30T02:36:44.565Z,0
2022-11-30T02:41:44.602Z,0
2022-11-30T02:46:44.583Z,0
2022-11-30T02:51:44.586Z,0
2022-11-30T02:56:44.595Z,0
2022-11-30T03:01:44.657Z,0
2022-11-30T03:06:44.600Z,0
2022-11-30T03:11:44.566Z,0
2022-11-30T03:16:44.565Z,0
2022-11-30T03:21:44.592Z,0
2022-11-30T03:26:44.550Z,0
2022-11-30T03:31:44.578Z,0
2022-11-30T03:36:44.561Z,0
2022-11-30T03:41:44.600Z,0
2022-11-30T03:46:44.593Z,0
2022-11-30T03:51:44.560Z,0
2022-11-30T03:56:44.578Z,0
2022-11-30T04:01:44.629Z,0
2022-11-30T04:06:44.576Z,0
2022-11-30T04:11:44.583Z,0
2022-11-30T04:16:44.556Z,0
2022-11-30T04:21:44.594Z,0
2022-11-30T04:26:44.555Z,0
2022-11-30T04:31:44.659Z,0
2022-11-30T04:36:44.581Z,0
2022-11-30T04:41:44.564Z,0
2022-11-30T04:46:44.634Z,0
2022-11-30T04:51:44.532Z,0
2022-11-30T04:56:44.533Z,0
2022-11-30T05:01:44.616Z,0
2022-11-30T05:06:44.637Z,0
2022-11-30T05:11:44.523Z,0
2022-11-30T05:16:44.558Z,0
2022-11-30T05:21:45.849Z,0
2022-11-30T05:26:44.525Z,0
2022-11-30T05:31:44.555Z,0
2022-11-30T05:36:44.525Z,0
2022-11-30T05:41:44.568Z,0
2022-11-30T05:46:44.576Z,0
2022-11-30T05:51:44.531Z,0
2022-11-30T05:56:44.547Z,0
2022-11-30T06:01:44.727Z,0
2022-11-30T06:06:44.504Z,0
2022-11-30T06:11:44.499Z,0
2022-11-30T06:16:44.601Z,0
2022-11-30T06:21:44.556Z,0
2022-11-30T06:26:44.543Z,0
2022-11-30T06:31:44.596Z,0
2022-11-30T06:36:44.514Z,0
2022-11-30T06:41:44.541Z,0
2022-11-30T06:46:44.469Z,0
2022-11-30T06:51:44.524Z,0
2022-11-30T06:56:44.558Z,0
2022-11-30T07:01:44.554Z,0
2022-11-30T07:06:44.489Z,0
2022-11-30T07:11:44.483Z,0
2022-11-30T07:16:44.504Z,0
2022-11-30T07:21:44.506Z,0
2022-11-30T07:26:44.507Z,0
2022-11-30T07:31:44.561Z,0
2022-11-30T07:36:44.515Z,0
2022-11-30T07:41:44.532Z,0
2022-11-30T07:46:44.478Z,1
2022-11-30T07:51:44.498Z,1
2022-11-30T07:56:44.504Z,2
2022-11-30T08:01:44.587Z,1
2022-11-30T08:06:44.479Z,4
2022-11-30T08:11:44.514Z,5
2022-11-30T08:16:44.531Z,6
2022-11-30T08:21:44.498Z,9
2022-11-30T08:26:44.504Z,9
2022-11-30T08:31:44.495Z,17
2022-11-30T08:36:47.154Z,10
2022-11-30T08:41:44.523Z,10
2022-11-30T08:46:52.504Z,12
2022-11-30T08:56:44.490Z,10
2022-11-30T09:01:44.508Z,18
2022-11-30T09:06:44.456Z,15
2022-11-30T09:11:44.458Z,13
2022-11-30T09:16:44.479Z,12
2022-11-30T09:21:51.121Z,11
2022-11-30T09:26:44.473Z,14
2022-11-30T09:31:44.484Z,16
2022-11-30T09:36:44.464Z,15
2022-11-30T09:41:44.500Z,15
2022-11-30T09:46:44.477Z,16
2022-11-30T09:51:44.476Z,17
2022-11-30T09:56:44.476Z,16
2022-11-30T10:01:45.961Z,16
2022-11-30T10:06:44.462Z,19
2022-11-30T10:11:44.456Z,19
2022-11-30T10:16:44.453Z,16
2022-11-30T10:21:44.504Z,15
2022-11-30T10:26:44.468Z,16
2022-11-30T10:31:44.457Z,16
2022-11-30T10:36:44.461Z,16
2022-11-30T10:41:44.465Z,14
2022-11-30T10:46:44.538Z,14
2022-11-30T10:51:44.466Z,15
2022-11-30T10:56:44.466Z,15
2022-11-30T11:01:44.683Z,12
2022-11-30T11:06:44.487Z,13
2022-11-30T11:11:44.470Z,12
2022-11-30T11:16:44.478Z,15
2022-11-30T11:21:44.460Z,14
2022-11-30T11:26:44.463Z,14
2022-11-30T11:31:44.491Z,14
2022-11-30T11:36:44.473Z,13
2022-11-30T11:41:44.496Z,21
2022-11-30T11:46:44.455Z,14
2022-11-30T11:51:44.434Z,14
2022-11-30T11:56:44.437Z,14
2022-11-30T12:01:44.476Z,13
2022-11-30T12:06:44.431Z,14
2022-11-30T12:11:44.435Z,12
2022-11-30T12:16:44.412Z,14
2022-11-30T12:21:44.451Z,18
2022-11-30T12:26:44.423Z,11
2022-11-30T12:31:44.523Z,14
2022-11-30T12:36:44.434Z,14
2022-11-30T12:41:44.429Z,15
2022-11-30T12:46:44.418Z,11
2022-11-30T12:51:44.421Z,9
2022-11-30T12:56:46.303Z,5
2022-11-30T13:01:44.505Z,9
2022-11-30T13:06:44.439Z,14
2022-11-30T13:11:44.440Z,12
2022-11-30T13:16:44.413Z,6
2022-11-30T13:21:44.493Z,7
2022-11-30T13:26:44.402Z,2
2022-11-30T13:31:44.440Z,2
2022-11-30T13:36:44.438Z,1
2022-11-30T13:49:18.274Z,3
2022-11-30T13:54:27.460Z,5
2022-11-30T13:59:18.287Z,6
2022-11-30T14:04:18.315Z,5
2022-11-30T14:09:18.310Z,3
2022-11-30T14:14:18.280Z,5
2022-11-30T14:19:18.308Z,5
2022-11-30T14:24:18.297Z,4
2022-11-30T14:29:18.327Z,3
2022-11-30T14:34:18.293Z,0
2022-11-30T14:39:18.290Z,0
2022-11-30T14:44:18.265Z,0
2022-11-30T14:49:18.312Z,0
2022-11-30T14:54:18.279Z,0
2022-11-30T14:59:18.281Z,0
2022-11-30T15:04:18.536Z,0
2022-11-30T15:09:18.554Z,0
2022-11-30T15:14:18.515Z,0
2022-11-30T15:19:18.516Z,0
2022-11-30T15:24:18.565Z,0
2022-11-30T15:29:18.555Z,0
2022-11-30T15:34:18.525Z,0
2022-11-30T15:39:18.507Z,0
2022-11-30T15:44:18.525Z,0
2022-11-30T15:49:18.536Z,0
2022-11-30T15:54:18.499Z,0
2022-11-30T15:59:18.512Z,0
2022-11-30T16:04:18.507Z,0
2022-11-30T16:09:18.526Z,0
2022-11-30T16:14:18.522Z,0
2022-11-30T16:19:18.487Z,0
2022-11-30T16:24:18.497Z,0
2022-11-30T16:29:18.530Z,0
2022-11-30T16:34:18.529Z,0
2022-11-30T16:39:18.498Z,0
2022-11-30T16:44:18.509Z,0
2022-11-30T16:49:18.541Z,0
2022-11-30T16:54:18.482Z,0
2022-11-30T16:59:18.455Z,0
2022-11-30T17:04:18.484Z,0
2022-11-30T17:09:18.499Z,0
2022-11-30T17:14:18.476Z,0
2022-11-30T17:19:18.518Z,0
2022-11-30T17:24:18.497Z,0
2022-11-30T17:29:18.523Z,0
2022-11-30T17:34:18.482Z,0
2022-11-30T17:39:18.471Z,0
2022-11-30T17:44:18.473Z,0
2022-11-30T17:49:18.514Z,0
2022-11-30T17:54:18.467Z,0
2022-11-30T17:59:18.466Z,0
2022-11-30T18:04:18.462Z,0
2022-11-30T18:09:18.502Z,0
2022-11-30T18:14:18.471Z,0
2022-11-30T18:19:18.469Z,0
2022-11-30T18:24:22.517Z,0
2022-11-30T18:29:18.478Z,0
2022-11-30T18:34:18.429Z,0
2022-11-30T18:39:18.505Z,0
2022-11-30T18:44:18.441Z,0
2022-11-30T18:49:18.468Z,0
2022-11-30T18:54:18.425Z,0
2022-11-30T18:59:18.468Z,0
2022-11-30T19:04:18.462Z,0
2022-11-30T19:09:18.499Z,0
2022-11-30T19:14:18.723Z,0
2022-11-30T19:19:18.430Z,0
2022-11-30T19:24:18.438Z,0
2022-11-30T19:29:18.437Z,0
2022-11-30T19:34:18.454Z,0
2022-11-30T19:39:18.450Z,0
2022-11-30T19:44:18.452Z,0
2022-11-30T19:49:18.448Z,0
2022-11-30T19:54:18.431Z,0
2022-11-30T19:59:18.445Z,0
2022-11-30T20:04:18.440Z,0
2022-11-30T20:09:18.451Z,0
2022-11-30T20:14:18.494Z,0
2022-11-30T20:19:18.434Z,0
2022-11-30T20:24:18.417Z,0
2022-11-30T20:29:18.434Z,0
2022-11-30T20:34:18.440Z,0
2022-11-30T20:39:18.443Z,0
2022-11-30T20:44:18.426Z,0
2022-11-30T20:49:18.428Z,0
2022-11-30T20:54:18.425Z,0
2022-11-30T20:59:18.425Z,0
2022-11-30T21:04:18.396Z,0
2022-11-30T21:09:18.433Z,0
2022-11-30T21:14:18.381Z,0
2022-11-30T21:19:18.406Z,0
2022-11-30T21:24:18.385Z,0
2022-11-30T21:29:18.440Z,0
2022-11-30T21:34:18.378Z,0
2022-11-30T21:39:18.399Z,0
2022-11-30T21:44:18.383Z,0
2022-11-30T21:49:18.415Z,0
2022-11-30T21:54:18.394Z,0
2022-11-30T21:59:18.385Z,0
2022-11-30T22:04:18.532Z,0
2022-11-30T22:09:18.419Z,0
2022-11-30T22:14:18.382Z,0
2022-11-30T22:19:18.409Z,0
2022-11-30T22:24:18.421Z,0
2022-11-30T22:29:18.399Z,0
2022-11-30T22:34:18.395Z,0
2022-11-30T22:39:18.343Z,0
2022-11-30T22:44:18.351Z,0
2022-11-30T22:49:21.006Z,0
2022-11-30T22:54:18.372Z,0
2022-11-30T22:59:18.355Z,0
2022-11-30T23:04:18.380Z,0
2022-11-30T23:09:18.355Z,0
2022-11-30T23:14:18.341Z,0
2022-11-30T23:19:18.363Z,0
2022-11-30T23:24:18.351Z,0
2022-11-30T23:29:18.388Z,0
2022-11-30T23:34:18.355Z,0
2022-11-30T23:39:18.347Z,0
2022-11-30T23:44:18.582Z,0
2022-11-30T23:49:18.645Z,0
2022-11-30T23:54:18.602Z,0
2022-11-30T23:59:18.596Z,0
